Terminal Aerodrome Forecast
Issued by NWS

Home | Current Version | Previous Version | Text Only | Print | Product List | Glossary On
Versions: 1 2 3 4 5 6 7 8 9 10 11 12 13 14 15 16 17 18 19 20 21 22 23 24 25 26 27 28 29 30 31 32
845
FTUS43 KLOT 192128 AAB
TAFORD
TAF AMD
KORD 192128Z 1921/2024 20014G23KT 6SM BR VCSH OVC010 WS015/22050KT
     FM192200 20014G23KT 2SM -SHRA BR OVC010 WS015/22050KT
     FM200200 21013G21KT 1 1/2SM -SHRA BR VCTS OVC010CB
      WS015/22050KT
     FM200600 21012KT 1 1/2SM SHRA BR VCTS SCT003 OVC007CB
      TEMPO 2008/2012 1SM TSRA OVC005CB
     FM201200 21012KT 1 1/2SM SHRA BR SCT003 OVC007=

USA.gov is the U.S. government's official web portal to all federal, state and local government web resources and services.